Terminal Aerodrome Forecast
Issued by NWS

Current Version | Previous Version | Text Only | Print | Product List | Glossary On
Versions: 1 2 3 4 5 6 7 8 9 10 11 12 13 14 15 16 17 18 19 20 21 22 23 24 25 26 27 28 29 30 31
000
FTAK31 PANC 212320
TAFAIL
TAF
PAIL 212320Z 2200/2224 13004KT P6SM VCSH SCT040 SCT090
     FM220900 VRB03KT P6SM VCFG SCT002 SCT180
     FM221800 13005KT P6SM FEW050 SCT180=

USA.gov is the U.S. government's official web portal to all federal, state and local government web resources and services.